createdAt,value
2023-12-21T00:00:16.431Z,0.43
2023-12-21T00:02:43.758Z,0.40
2023-12-21T00:05:11.215Z,0.38
2023-12-21T00:07:38.684Z,0.34
2023-12-21T00:10:07.329Z,0.36
2023-12-21T00:12:34.564Z,0.35
2023-12-21T00:15:02.074Z,0.31
2023-12-21T00:17:33.452Z,0.32
2023-12-21T00:20:00.986Z,0.31
2023-12-21T00:22:28.818Z,0.26
2023-12-21T00:24:56.185Z,0.26
2023-12-21T00:27:23.411Z,0.27
2023-12-21T00:29:50.730Z,0.27
2023-12-21T00:32:18.387Z,0.27
2023-12-21T00:34:51.051Z,0.20
2023-12-21T00:37:18.840Z,0.24
2023-12-21T00:39:46.113Z,0.21
2023-12-21T00:42:13.372Z,0.15
2023-12-21T00:44:41.559Z,0.16
2023-12-21T00:47:09.049Z,0.15
2023-12-21T00:49:36.419Z,0.12
2023-12-21T00:52:05.694Z,0.15
2023-12-21T00:54:32.949Z,0.13
2023-12-21T00:57:00.292Z,0.10
2023-12-21T00:59:27.841Z,0.16
2023-12-21T01:01:55.223Z,0.13
2023-12-21T01:04:22.500Z,0.12
2023-12-21T01:06:49.784Z,0.11
2023-12-21T01:09:18.633Z,0.09
2023-12-21T01:11:46.207Z,0.08
2023-12-21T01:14:13.527Z,0.08
2023-12-21T01:16:40.972Z,0.02
2023-12-21T01:19:08.390Z,0.05
2023-12-21T01:21:36.087Z,0.05
2023-12-21T01:24:03.508Z,0.04
2023-12-21T01:26:32.155Z,0.08
2023-12-21T01:28:59.510Z,0.11
2023-12-21T01:31:26.886Z,0.08
2023-12-21T01:33:54.288Z,0.11
2023-12-21T01:36:22.093Z,0.13
2023-12-21T01:38:49.301Z,0.10
2023-12-21T01:41:16.528Z,0.15
2023-12-21T01:43:45.698Z,0.12
2023-12-21T01:46:13.514Z,0.14
2023-12-21T01:48:42.267Z,0.10
2023-12-21T01:51:12.834Z,0.08
2023-12-21T01:53:40.988Z,0.05
2023-12-21T01:56:08.656Z,0.06
2023-12-21T01:58:36.795Z,0.05
2023-12-21T02:01:07.045Z,0.04
2023-12-21T02:03:34.918Z,0.04
2023-12-21T02:06:02.359Z,0.02
2023-12-21T02:08:29.884Z,0.05
2023-12-21T02:11:01.505Z,0.08
2023-12-21T02:13:29.041Z,0.06
2023-12-21T02:16:02.100Z,-0.02
2023-12-21T02:18:31.660Z,0.08
2023-12-21T02:20:59.913Z,0.06
2023-12-21T02:23:30.147Z,0.05
2023-12-21T02:25:58.909Z,0.05
2023-12-21T02:28:26.374Z,0.03
2023-12-21T02:30:53.742Z,0.03
2023-12-21T02:33:21.098Z,0.06
2023-12-21T02:35:48.388Z,0.05
2023-12-21T02:38:15.735Z,0.05
2023-12-21T02:40:43.181Z,0.01
2023-12-21T02:43:11.830Z,0.04
2023-12-21T02:45:39.341Z,0.02
2023-12-21T02:48:07.557Z,-0.01
2023-12-21T02:50:35.031Z,0.03
2023-12-21T02:53:02.406Z,0.02
2023-12-21T02:55:29.976Z,0.05
2023-12-21T02:57:57.256Z,0.08
2023-12-21T03:00:25.959Z,0.06
2023-12-21T03:02:53.456Z,0.05
2023-12-21T03:05:20.733Z,0.03
2023-12-21T03:07:47.985Z,0.06
2023-12-21T03:10:15.341Z,0.04
2023-12-21T03:12:43.203Z,0.05
2023-12-21T03:15:11.159Z,0.05
2023-12-21T03:17:40.167Z,0.08
2023-12-21T03:20:09.240Z,0.06
2023-12-21T03:22:36.717Z,0.01
2023-12-21T03:25:04.392Z,0.07
2023-12-21T03:27:32.757Z,0.08
2023-12-21T03:29:59.969Z,0.05
2023-12-21T03:32:28.305Z,0.15
2023-12-21T03:34:57.892Z,0.12
2023-12-21T03:37:28.788Z,0.08
2023-12-21T03:39:57.134Z,0.07
2023-12-21T03:42:24.531Z,0.04
2023-12-21T03:44:51.768Z,0.04
2023-12-21T03:47:21.429Z,0.00
2023-12-21T03:49:49.057Z,0.05
2023-12-21T03:52:18.054Z,0.03
2023-12-21T03:54:45.426Z,0.01
2023-12-21T03:57:12.815Z,0.02
2023-12-21T03:59:42.096Z,0.04
2023-12-21T04:02:09.436Z,0.00
2023-12-21T04:04:37.915Z,-0.02
2023-12-21T04:07:05.613Z,0.05
2023-12-21T04:09:34.357Z,0.08
2023-12-21T04:12:01.714Z,0.07
2023-12-21T04:14:29.498Z,0.11
2023-12-21T04:16:56.721Z,0.12
2023-12-21T04:19:24.172Z,0.09
2023-12-21T04:21:51.463Z,0.10
2023-12-21T04:24:19.263Z,0.16
2023-12-21T04:26:47.936Z,0.19
2023-12-21T04:29:15.326Z,0.18
2023-12-21T04:31:45.952Z,0.23
2023-12-21T04:34:13.451Z,0.19
2023-12-21T04:36:40.818Z,0.18
2023-12-21T04:39:08.053Z,0.17
2023-12-21T04:41:35.559Z,0.19
2023-12-21T04:44:05.533Z,0.16
2023-12-21T04:46:33.367Z,0.15
2023-12-21T04:49:00.775Z,0.11
2023-12-21T04:51:28.085Z,0.13
2023-12-21T04:53:55.436Z,0.14
2023-12-21T04:56:23.024Z,0.05
2023-12-21T04:58:50.406Z,0.18
2023-12-21T05:01:19.812Z,0.15
2023-12-21T05:03:47.131Z,0.12
2023-12-21T05:06:15.000Z,0.17
2023-12-21T05:08:42.404Z,0.21
2023-12-21T05:11:10.163Z,0.15
2023-12-21T05:13:37.465Z,0.15
2023-12-21T05:16:05.568Z,0.16
2023-12-21T05:18:36.414Z,0.14
2023-12-21T05:21:04.024Z,0.13
2023-12-21T05:23:31.203Z,0.16
2023-12-21T05:25:58.484Z,0.18
2023-12-21T05:28:26.077Z,0.17
2023-12-21T05:30:53.886Z,0.21
2023-12-21T05:33:21.425Z,0.21
2023-12-21T05:35:50.211Z,0.21
2023-12-21T05:38:17.819Z,0.17
2023-12-21T05:40:45.250Z,0.20
2023-12-21T05:43:13.191Z,0.03
2023-12-21T05:45:40.510Z,0.26
2023-12-21T05:48:08.628Z,0.23
2023-12-21T05:50:36.389Z,0.25
2023-12-21T05:53:05.480Z,0.23
2023-12-21T05:55:32.792Z,0.26
2023-12-21T05:58:00.141Z,0.26
2023-12-21T06:00:27.489Z,0.29
2023-12-21T06:02:54.677Z,0.26
2023-12-21T06:05:22.035Z,0.25
2023-12-21T06:07:49.465Z,0.24
2023-12-21T06:10:18.173Z,0.23
2023-12-21T06:12:45.905Z,0.23
2023-12-21T06:15:13.444Z,0.22
2023-12-21T06:17:40.710Z,0.28
2023-12-21T06:20:09.431Z,0.26
2023-12-21T06:22:36.820Z,0.30
2023-12-21T06:25:04.786Z,0.27
2023-12-21T06:27:33.750Z,0.33
2023-12-21T06:30:01.153Z,0.30
2023-12-21T06:32:29.716Z,0.31
2023-12-21T06:34:57.491Z,0.29
2023-12-21T06:37:24.884Z,0.28
2023-12-21T06:39:52.424Z,0.32
2023-12-21T06:42:20.033Z,0.34
2023-12-21T06:44:48.650Z,0.34
2023-12-21T06:47:15.972Z,0.36
2023-12-21T06:49:43.604Z,0.36
2023-12-21T06:52:11.120Z,0.38
2023-12-21T06:54:38.498Z,0.30
2023-12-21T06:57:05.837Z,0.34
2023-12-21T06:59:33.246Z,0.36
2023-12-21T07:02:02.119Z,0.40
2023-12-21T07:04:29.507Z,0.36
2023-12-21T07:06:57.497Z,0.30
2023-12-21T07:09:25.299Z,0.30
2023-12-21T07:11:52.551Z,0.33
2023-12-21T07:14:19.786Z,0.33
2023-12-21T07:16:47.128Z,0.30
2023-12-21T07:19:16.067Z,0.35
2023-12-21T07:21:43.776Z,0.29
2023-12-21T07:24:11.147Z,0.28
2023-12-21T07:26:38.711Z,0.37
2023-12-21T07:29:08.495Z,0.40
2023-12-21T07:31:36.260Z,0.42
2023-12-21T07:34:04.081Z,0.36
2023-12-21T07:36:32.895Z,0.40
2023-12-21T07:39:00.485Z,0.41
2023-12-21T07:41:27.999Z,0.39
2023-12-21T07:43:55.632Z,0.38
2023-12-21T07:46:22.973Z,0.40
2023-12-21T07:48:50.841Z,0.38
2023-12-21T07:51:18.213Z,0.37
2023-12-21T07:53:46.862Z,0.41
2023-12-21T07:56:14.509Z,0.39
2023-12-21T07:58:41.829Z,0.39
2023-12-21T08:01:09.574Z,0.39
2023-12-21T08:03:36.976Z,0.36
2023-12-21T08:06:05.718Z,0.42
2023-12-21T08:08:34.933Z,0.45
2023-12-21T08:11:04.236Z,0.46
2023-12-21T08:13:32.588Z,0.44
2023-12-21T08:15:59.942Z,0.44
2023-12-21T08:18:27.283Z,0.46
2023-12-21T08:20:56.179Z,0.38
2023-12-21T08:23:23.566Z,0.47
2023-12-21T08:25:50.911Z,0.46
2023-12-21T08:28:19.794Z,0.44
2023-12-21T08:30:47.291Z,0.45
2023-12-21T08:33:14.663Z,0.44
2023-12-21T08:35:42.135Z,0.44
2023-12-21T08:38:10.110Z,0.48
2023-12-21T08:40:37.513Z,0.47
2023-12-21T08:43:05.923Z,0.42
2023-12-21T08:45:34.551Z,0.43
2023-12-21T08:48:01.952Z,0.47
2023-12-21T08:50:29.586Z,0.49
2023-12-21T08:52:57.558Z,0.52
2023-12-21T08:55:25.240Z,0.58
2023-12-21T08:57:52.619Z,0.56
2023-12-21T09:00:20.479Z,0.59
2023-12-21T09:02:50.011Z,0.61
2023-12-21T09:05:18.956Z,0.58
2023-12-21T09:07:46.468Z,0.60
2023-12-21T09:10:14.043Z,0.58
2023-12-21T09:12:41.546Z,0.58
2023-12-21T09:15:09.753Z,0.66
2023-12-21T09:17:37.310Z,0.58
2023-12-21T09:20:09.721Z,0.62
2023-12-21T09:22:38.467Z,0.59
2023-12-21T09:25:06.887Z,0.59
2023-12-21T09:27:35.845Z,0.61
2023-12-21T09:30:06.815Z,0.65
2023-12-21T09:32:34.420Z,0.64
2023-12-21T09:35:02.448Z,0.61
2023-12-21T09:37:33.456Z,0.67
2023-12-21T09:40:00.958Z,0.77
2023-12-21T09:42:29.265Z,0.68
2023-12-21T09:44:57.215Z,0.67
2023-12-21T09:47:26.060Z,0.73
2023-12-21T09:49:55.874Z,0.65
2023-12-21T09:52:24.084Z,0.60
2023-12-21T09:54:53.688Z,0.64
2023-12-21T09:57:23.473Z,0.67
2023-12-21T09:59:52.728Z,0.67
2023-12-21T10:02:20.923Z,0.60
2023-12-21T10:04:49.520Z,0.63
2023-12-21T10:07:17.349Z,0.63
2023-12-21T10:09:44.756Z,0.66
2023-12-21T10:12:14.175Z,0.67
2023-12-21T10:14:41.668Z,0.72
2023-12-21T10:17:11.994Z,0.64
2023-12-21T10:19:45.408Z,0.57
2023-12-21T10:22:12.843Z,0.58
2023-12-21T10:24:40.447Z,0.59
2023-12-21T10:27:17.970Z,0.56
2023-12-21T10:29:52.430Z,0.56
2023-12-21T10:32:20.081Z,0.58
2023-12-21T10:34:47.738Z,0.60
2023-12-21T10:37:16.068Z,0.60
2023-12-21T10:39:43.629Z,0.63
2023-12-21T10:42:11.233Z,0.69
2023-12-21T10:44:40.424Z,0.77
2023-12-21T10:47:07.831Z,0.66
2023-12-21T10:49:35.978Z,0.62
2023-12-21T10:52:05.001Z,0.63
2023-12-21T10:54:33.750Z,0.62
2023-12-21T10:57:01.694Z,0.56
2023-12-21T10:59:31.045Z,0.51
2023-12-21T11:02:00.972Z,0.43
2023-12-21T11:04:30.508Z,0.50
2023-12-21T11:06:58.789Z,0.54
2023-12-21T11:09:28.128Z,0.54
2023-12-21T11:11:58.770Z,0.48
2023-12-21T11:14:26.248Z,0.48
2023-12-21T11:16:56.619Z,0.42
2023-12-21T11:19:30.784Z,0.38
2023-12-21T11:21:59.326Z,0.44
2023-12-21T11:24:26.655Z,0.49
2023-12-21T11:26:54.464Z,0.52
2023-12-21T11:29:28.191Z,0.47
2023-12-21T11:31:56.648Z,0.48
2023-12-21T11:34:36.469Z,0.47
2023-12-21T11:37:18.131Z,0.48
2023-12-21T11:39:46.779Z,0.45
2023-12-21T11:42:14.171Z,0.47
2023-12-21T11:44:41.655Z,0.47
2023-12-21T11:47:13.569Z,0.41
2023-12-21T11:49:42.843Z,0.40
2023-12-21T11:52:10.838Z,0.43
2023-12-21T11:54:38.387Z,0.40
2023-12-21T11:57:13.711Z,0.41
2023-12-21T11:59:41.242Z,0.45
2023-12-21T12:02:11.785Z,0.42
2023-12-21T12:04:39.540Z,0.38
2023-12-21T12:07:08.305Z,0.39
2023-12-21T12:09:36.091Z,0.40
2023-12-21T12:12:03.766Z,0.39
2023-12-21T12:14:31.052Z,0.40
2023-12-21T12:16:58.708Z,0.41
2023-12-21T12:19:28.412Z,0.41
2023-12-21T12:21:56.044Z,0.37
2023-12-21T12:24:24.800Z,0.39
2023-12-21T12:26:53.329Z,0.46
2023-12-21T12:29:20.730Z,0.43
2023-12-21T12:31:50.109Z,0.42
2023-12-21T12:34:17.974Z,0.47
2023-12-21T12:36:45.437Z,0.48
2023-12-21T12:39:13.085Z,0.48
2023-12-21T12:41:42.034Z,0.48
2023-12-21T12:44:10.384Z,0.51
2023-12-21T12:46:37.914Z,0.47
2023-12-21T12:49:05.389Z,0.45
2023-12-21T12:51:33.327Z,0.43
2023-12-21T12:54:01.478Z,0.43
2023-12-21T12:56:28.854Z,0.36
2023-12-21T12:58:59.617Z,0.39
2023-12-21T13:01:29.199Z,0.41
2023-12-21T13:03:58.957Z,0.38
2023-12-21T13:06:26.839Z,0.39
2023-12-21T13:08:54.380Z,0.45
2023-12-21T13:11:22.985Z,0.49
2023-12-21T13:13:50.834Z,0.50
2023-12-21T13:16:20.361Z,0.53
2023-12-21T13:18:48.709Z,0.54
2023-12-21T13:21:16.487Z,0.54
2023-12-21T13:23:43.971Z,0.48
2023-12-21T13:26:14.231Z,0.42
2023-12-21T13:28:43.948Z,0.56
2023-12-21T13:31:11.673Z,0.55
2023-12-21T13:33:41.060Z,0.55
2023-12-21T13:36:09.084Z,0.57
2023-12-21T13:38:39.008Z,0.56
2023-12-21T13:41:09.863Z,0.52
2023-12-21T13:43:37.630Z,0.50
2023-12-21T13:46:05.827Z,0.52
2023-12-21T13:48:33.207Z,0.47
2023-12-21T13:51:02.401Z,0.50
2023-12-21T13:53:29.830Z,0.52
2023-12-21T13:55:57.284Z,0.53
2023-12-21T13:58:24.897Z,0.57
2023-12-21T14:00:52.732Z,0.53
2023-12-21T14:03:20.253Z,0.54
2023-12-21T14:05:47.827Z,0.52
2023-12-21T14:08:16.669Z,0.55
2023-12-21T14:10:44.048Z,0.56
2023-12-21T14:13:11.377Z,0.58
2023-12-21T14:15:41.156Z,0.60
2023-12-21T14:18:08.660Z,0.58
2023-12-21T14:20:36.049Z,0.61
2023-12-21T14:23:03.655Z,0.59
2023-12-21T14:25:32.340Z,0.57
2023-12-21T14:28:00.453Z,0.58
2023-12-21T14:30:28.183Z,0.57
2023-12-21T14:32:55.460Z,0.63
2023-12-21T14:35:22.868Z,0.57
2023-12-21T14:37:52.905Z,0.62
2023-12-21T14:40:20.860Z,0.63
2023-12-21T14:42:49.617Z,0.62
2023-12-21T14:45:17.052Z,0.61
2023-12-21T14:47:45.320Z,0.59
2023-12-21T14:50:13.142Z,0.57
2023-12-21T14:52:40.585Z,0.60
2023-12-21T14:55:08.778Z,0.61
2023-12-21T14:57:36.167Z,0.62
2023-12-21T15:00:10.347Z,0.61
2023-12-21T15:02:38.113Z,0.61
2023-12-21T15:05:06.497Z,0.63
2023-12-21T15:07:34.164Z,0.64
2023-12-21T15:10:02.750Z,0.63
2023-12-21T15:12:35.851Z,0.65
2023-12-21T15:15:05.511Z,0.67
2023-12-21T15:17:36.315Z,0.69
2023-12-21T15:20:07.858Z,0.73
2023-12-21T15:22:36.188Z,0.64
2023-12-21T15:25:03.804Z,0.67
2023-12-21T15:27:33.067Z,0.73
2023-12-21T15:30:00.703Z,0.66
2023-12-21T15:32:30.820Z,0.61
2023-12-21T15:34:58.365Z,0.63
2023-12-21T15:37:26.114Z,0.63
2023-12-21T15:39:53.502Z,0.63
2023-12-21T15:42:20.841Z,0.59
2023-12-21T15:44:48.084Z,0.56
2023-12-21T15:47:15.930Z,0.60
2023-12-21T15:49:44.762Z,0.61
2023-12-21T15:52:12.161Z,0.66
2023-12-21T15:54:39.408Z,0.66
2023-12-21T15:57:07.050Z,0.62
2023-12-21T15:59:35.981Z,0.62
2023-12-21T16:02:04.235Z,0.64
2023-12-21T16:04:33.970Z,0.64
2023-12-21T16:07:04.796Z,0.65
2023-12-21T16:09:32.220Z,0.66
2023-12-21T16:11:59.603Z,0.61
2023-12-21T16:14:26.854Z,0.61
2023-12-21T16:16:54.216Z,0.71
2023-12-21T16:19:21.982Z,0.61
2023-12-21T16:21:49.526Z,0.59
2023-12-21T16:24:18.703Z,0.60
2023-12-21T16:26:46.150Z,0.55
2023-12-21T16:29:13.765Z,0.58
2023-12-21T16:31:41.055Z,0.58
2023-12-21T16:34:08.490Z,0.59
2023-12-21T16:36:35.912Z,0.57
2023-12-21T16:39:04.908Z,0.57
2023-12-21T16:41:33.740Z,0.53
2023-12-21T16:44:01.168Z,0.57
2023-12-21T16:46:29.449Z,0.59
2023-12-21T16:48:56.751Z,0.53
2023-12-21T16:51:23.989Z,0.55
2023-12-21T16:53:51.529Z,0.53
2023-12-21T16:56:19.665Z,0.52
2023-12-21T16:58:49.195Z,0.49
2023-12-21T17:01:17.180Z,0.49
2023-12-21T17:03:44.522Z,0.55
2023-12-21T17:06:12.160Z,0.55
2023-12-21T17:08:39.651Z,0.58
2023-12-21T17:11:06.964Z,0.56
2023-12-21T17:13:34.586Z,0.55
2023-12-21T17:16:04.458Z,0.56
2023-12-21T17:18:32.084Z,0.55
2023-12-21T17:20:59.694Z,0.56
2023-12-21T17:23:27.175Z,0.55
2023-12-21T17:25:54.638Z,0.57
2023-12-21T17:28:22.752Z,0.53
2023-12-21T17:30:54.871Z,0.59
2023-12-21T17:33:23.890Z,0.60
2023-12-21T17:35:51.251Z,0.60
2023-12-21T17:38:19.494Z,0.64
2023-12-21T17:40:46.841Z,0.65
2023-12-21T17:43:14.209Z,0.66
2023-12-21T17:45:42.779Z,0.62
2023-12-21T17:48:10.174Z,0.64
2023-12-21T17:50:38.828Z,0.64
2023-12-21T17:53:06.067Z,0.62
2023-12-21T17:55:33.963Z,0.66
2023-12-21T17:58:01.318Z,0.65
2023-12-21T18:00:28.564Z,0.65
2023-12-21T18:02:56.073Z,0.68
2023-12-21T18:05:23.398Z,0.65
2023-12-21T18:07:52.231Z,0.66
2023-12-21T18:10:19.950Z,0.66
2023-12-21T18:12:47.954Z,0.61
2023-12-21T18:15:15.543Z,0.64
2023-12-21T18:17:46.772Z,0.61
2023-12-21T18:20:17.972Z,0.70
2023-12-21T18:22:45.769Z,0.65
2023-12-21T18:25:14.509Z,0.66
2023-12-21T18:27:42.205Z,0.71
2023-12-21T18:30:10.132Z,0.65
2023-12-21T18:32:38.002Z,0.71
2023-12-21T18:35:06.171Z,0.69
2023-12-21T18:37:33.615Z,0.67
2023-12-21T18:40:01.158Z,0.66
2023-12-21T18:42:30.389Z,0.65
2023-12-21T18:44:57.781Z,0.66
2023-12-21T18:47:25.111Z,0.66
2023-12-21T18:49:52.822Z,0.63
2023-12-21T18:52:20.842Z,0.53
2023-12-21T18:54:48.253Z,0.47
2023-12-21T18:57:17.900Z,0.42
2023-12-21T18:59:47.528Z,0.38
2023-12-21T19:02:16.631Z,0.34
2023-12-21T19:04:44.185Z,0.29
2023-12-21T19:07:11.637Z,0.29
2023-12-21T19:09:40.064Z,0.29
2023-12-21T19:12:08.092Z,0.29
2023-12-21T19:14:35.846Z,0.30
2023-12-21T19:17:05.561Z,0.31
2023-12-21T19:19:33.116Z,0.29
2023-12-21T19:22:00.580Z,0.32
2023-12-21T19:24:27.874Z,0.35
2023-12-21T19:26:56.484Z,0.35
2023-12-21T19:29:24.375Z,0.38
2023-12-21T19:31:51.840Z,0.39
2023-12-21T19:34:21.631Z,0.42
2023-12-21T19:36:49.283Z,0.46
2023-12-21T19:39:16.705Z,0.47
2023-12-21T19:41:44.969Z,0.48
2023-12-21T19:44:13.148Z,0.51
2023-12-21T19:46:41.183Z,0.47
2023-12-21T19:49:09.106Z,0.48
2023-12-21T19:51:38.025Z,0.48
2023-12-21T19:54:06.019Z,0.44
2023-12-21T19:56:33.745Z,0.45
2023-12-21T19:59:01.437Z,0.49
2023-12-21T20:01:29.252Z,0.49
2023-12-21T20:03:56.674Z,0.46
2023-12-21T20:06:23.904Z,0.47
2023-12-21T20:08:52.590Z,0.47
2023-12-21T20:11:19.899Z,0.50
2023-12-21T20:13:47.537Z,0.47
2023-12-21T20:16:15.025Z,0.44
2023-12-21T20:18:42.930Z,0.48
2023-12-21T20:21:11.728Z,0.48
2023-12-21T20:23:39.151Z,0.49
2023-12-21T20:26:07.904Z,0.50
2023-12-21T20:28:37.204Z,0.54
2023-12-21T20:31:05.046Z,0.52
2023-12-21T20:33:32.323Z,0.51
2023-12-21T20:35:59.749Z,0.50
2023-12-21T20:38:29.051Z,0.49
2023-12-21T20:40:56.487Z,0.49
2023-12-21T20:43:25.951Z,0.47
2023-12-21T20:45:53.307Z,0.47
2023-12-21T20:48:23.372Z,0.45
2023-12-21T20:50:50.719Z,0.51
2023-12-21T20:53:18.174Z,0.49
2023-12-21T20:55:45.485Z,0.50
2023-12-21T20:58:12.854Z,0.52
2023-12-21T21:00:41.618Z,0.54
2023-12-21T21:03:09.321Z,0.56
2023-12-21T21:05:37.031Z,0.50
2023-12-21T21:08:04.842Z,0.57
2023-12-21T21:10:32.454Z,0.58
2023-12-21T21:13:02.331Z,0.57
2023-12-21T21:15:29.902Z,0.54
2023-12-21T21:17:58.617Z,0.55
2023-12-21T21:20:26.455Z,0.55
2023-12-21T21:22:53.879Z,0.53
2023-12-21T21:25:21.380Z,0.51
2023-12-21T21:27:49.166Z,0.53
2023-12-21T21:30:54.403Z,0.56
2023-12-21T21:33:06.717Z,0.57
2023-12-21T21:35:34.321Z,0.59
2023-12-21T21:38:01.809Z,0.55
2023-12-21T21:40:29.631Z,0.59
2023-12-21T21:42:57.237Z,0.56
2023-12-21T21:45:24.853Z,0.55
2023-12-21T21:47:52.521Z,0.53
2023-12-21T21:50:21.370Z,0.53
2023-12-21T21:52:49.233Z,0.51
2023-12-21T21:55:17.032Z,0.49
2023-12-21T21:57:44.330Z,0.50
2023-12-21T22:00:13.134Z,0.53
2023-12-21T22:02:40.404Z,0.52
2023-12-21T22:05:08.177Z,0.49
2023-12-21T22:07:40.808Z,0.46
2023-12-21T22:10:09.136Z,0.45
2023-12-21T22:12:36.488Z,0.47
2023-12-21T22:15:04.424Z,0.44
2023-12-21T22:17:32.554Z,0.41
2023-12-21T22:20:00.033Z,0.39
2023-12-21T22:22:27.505Z,0.38
2023-12-21T22:24:56.151Z,0.37
2023-12-21T22:27:23.527Z,0.38
2023-12-21T22:29:53.372Z,0.40
2023-12-21T22:32:21.006Z,0.37
2023-12-21T22:34:48.618Z,0.36
2023-12-21T22:37:18.724Z,0.33
2023-12-21T22:39:46.910Z,0.32
2023-12-21T22:42:16.685Z,0.31
2023-12-21T22:44:44.305Z,0.29
2023-12-21T22:47:11.671Z,0.29
2023-12-21T22:49:40.060Z,0.29
2023-12-21T22:52:07.799Z,0.32
2023-12-21T22:54:36.476Z,0.27
2023-12-21T22:57:04.384Z,0.29
2023-12-21T22:59:33.275Z,0.23
2023-12-21T23:02:01.283Z,0.22
2023-12-21T23:04:28.899Z,0.23
2023-12-21T23:06:56.964Z,0.21
2023-12-21T23:09:24.685Z,0.14
2023-12-21T23:11:52.152Z,0.24
2023-12-21T23:14:19.674Z,0.19
2023-12-21T23:16:48.584Z,0.20
2023-12-21T23:19:16.184Z,0.17
2023-12-21T23:21:43.586Z,0.14
2023-12-21T23:24:10.752Z,0.15
2023-12-21T23:26:38.126Z,0.12
2023-12-21T23:29:05.330Z,0.15
2023-12-21T23:31:32.691Z,0.11
2023-12-21T23:34:01.434Z,0.10
2023-12-21T23:36:28.889Z,0.12
2023-12-21T23:38:56.174Z,0.12
2023-12-21T23:41:23.640Z,0.13
2023-12-21T23:43:51.093Z,0.15
2023-12-21T23:46:18.419Z,0.11
2023-12-21T23:48:45.999Z,0.08
2023-12-21T23:51:14.854Z,0.07
2023-12-21T23:53:42.276Z,0.06
2023-12-21T23:56:09.817Z,0.06
2023-12-21T23:58:37.353Z,0.10
